Time;durP1;ratioP1;P1;durP2;ratioP2;P2;SDS_P1;SDS_P2;PMS_P1;PMS_P2;Temp;Humidity;BMP_temperature;BMP_pressure;BME280_temperature;BME280_humidity;BME280_pressure;Samples;Min_cycle;Max_cycle;Signal;HPM_P1;HPM_P2
2023/07/23 00:01:23;;;;;;;6.18;4.03;;;;;;;;;;5031163;28;20029;-67
2023/07/23 00:03:48;;;;;;;6.50;4.28;;;;;;;;;;5030865;28;20025;-68
2023/07/23 00:06:13;;;;;;;7.82;4.65;;;;;;;;;;5030918;28;20312;-72
2023/07/23 00:08:39;;;;;;;5.32;3.55;;;;;;;;;;5031050;28;20025;-68
2023/07/23 00:11:04;;;;;;;6.20;4.15;;;;;;;;;;5031090;28;20775;-68
2023/07/23 00:13:30;;;;;;;7.25;4.65;;;;;;;;;;5033922;28;20071;-68
2023/07/23 00:15:55;;;;;;;7.20;4.40;;;;;;;;;;5035047;28;20493;-68
2023/07/23 00:18:20;;;;;;;10.68;4.88;;;;;;;;;;5034915;28;20067;-69
2023/07/23 00:20:46;;;;;;;7.18;5.03;;;;;;;;;;5035135;28;20057;-69
2023/07/23 00:23:12;;;;;;;6.57;4.10;;;;;;;;;;5035008;28;20124;-68
2023/07/23 00:25:37;;;;;;;7.32;4.15;;;;;;;;;;5034880;28;20079;-68
2023/07/23 00:28:03;;;;;;;6.15;4.50;;;;;;;;;;5034916;28;20060;-69
2023/07/23 00:30:28;;;;;;;8.05;4.43;;;;;;;;;;5034801;28;20021;-67
2023/07/23 00:32:53;;;;;;;6.25;4.03;;;;;;;;;;5034529;28;20589;-68
2023/07/23 00:35:20;;;;;;;6.45;4.18;;;;;;;;;;5034575;28;20037;-70
2023/07/23 00:37:45;;;;;;;7.05;4.47;;;;;;;;;;5034653;28;20026;-70
2023/07/23 00:40:11;;;;;;;5.82;4.13;;;;;;;;;;5034607;28;20032;-68
2023/07/23 00:42:37;;;;;;;6.07;4.07;;;;;;;;;;5034493;28;20021;-68
2023/07/23 00:45:03;;;;;;;8.35;4.00;;;;;;;;;;5859344;22;20008;-67
2023/07/23 00:47:28;;;;;;;7.57;4.53;;;;;;;;;;4985783;28;20038;-67
2023/07/23 00:49:54;;;;;;;5.45;3.92;;;;;;;;;;4984544;28;20475;-73
2023/07/23 00:52:20;;;;;;;8.20;4.30;;;;;;;;;;4985424;28;20054;-66
2023/07/23 00:54:45;;;;;;;6.50;4.32;;;;;;;;;;4986434;28;20120;-66
2023/07/23 00:57:11;;;;;;;5.47;3.92;;;;;;;;;;4986368;28;20026;-66
2023/07/23 00:59:39;;;;;;;7.53;4.50;;;;;;;;;;4984557;28;20023;-68
2023/07/23 01:02:05;;;;;;;6.03;4.03;;;;;;;;;;4985029;28;20109;-65
2023/07/23 01:04:32;;;;;;;6.90;4.05;;;;;;;;;;4986280;28;20475;-67
2023/07/23 01:07:01;;;;;;;11.63;4.57;;;;;;;;;;4984513;28;20027;-66
2023/07/23 01:09:28;;;;;;;7.05;4.60;;;;;;;;;;4984898;28;20352;-69
2023/07/23 01:11:55;;;;;;;8.00;5.00;;;;;;;;;;4986160;28;20034;-66
2023/07/23 01:14:21;;;;;;;8.02;4.70;;;;;;;;;;4984647;28;20081;-66
2023/07/23 01:16:47;;;;;;;10.05;5.15;;;;;;;;;;4984504;28;20022;-69
2023/07/23 01:19:15;;;;;;;7.30;5.20;;;;;;;;;;4986423;28;20033;-71
2023/07/23 01:21:41;;;;;;;7.55;4.95;;;;;;;;;;4985144;28;20065;-66
2023/07/23 01:24:06;;;;;;;7.78;4.95;;;;;;;;;;4984585;28;20055;-70
2023/07/23 01:26:32;;;;;;;8.25;5.32;;;;;;;;;;4983800;28;20026;-69
2023/07/23 01:28:57;;;;;;;10.85;4.70;;;;;;;;;;4984022;28;20030;-71
2023/07/23 01:31:23;;;;;;;9.98;4.93;;;;;;;;;;4984959;28;20538;-65
2023/07/23 01:33:49;;;;;;;7.82;4.65;;;;;;;;;;4983848;28;20077;-66
2023/07/23 01:36:16;;;;;;;8.18;4.95;;;;;;;;;;4985661;28;20030;-66
2023/07/23 01:38:42;;;;;;;7.25;5.50;;;;;;;;;;4984561;28;20081;-67
2023/07/23 01:41:07;;;;;;;8.95;5.22;;;;;;;;;;4984037;28;20487;-70
2023/07/23 01:43:33;;;;;;;30.55;18.73;;;;;;;;;;4985417;28;20042;-65
2023/07/23 01:45:59;;;;;;;20.02;12.32;;;;;;;;;;4981630;28;20043;-65
2023/07/23 01:48:24;;;;;;;7.95;5.78;;;;;;;;;;4984295;28;20373;-67
2023/07/23 01:50:50;;;;;;;8.35;5.53;;;;;;;;;;4985304;28;21161;-68
2023/07/23 01:53:16;;;;;;;9.10;5.70;;;;;;;;;;4983291;28;20030;-68
2023/07/23 01:55:41;;;;;;;10.60;6.40;;;;;;;;;;4983666;28;20022;-66
2023/07/23 01:58:06;;;;;;;9.18;6.13;;;;;;;;;;4985009;28;20022;-65
2023/07/23 02:00:32;;;;;;;11.75;6.43;;;;;;;;;;4985174;28;20033;-65
2023/07/23 02:02:57;;;;;;;9.52;6.50;;;;;;;;;;4983553;28;20139;-65
2023/07/23 02:05:23;;;;;;;8.30;6.18;;;;;;;;;;4984235;28;20048;-65
2023/07/23 02:07:48;;;;;;;9.13;6.20;;;;;;;;;;4984742;28;20015;-65
2023/07/23 02:10:17;;;;;;;9.75;6.20;;;;;;;;;;4983063;28;20029;-65
2023/07/23 02:12:43;;;;;;;7.55;5.30;;;;;;;;;;4983996;28;20034;-65
2023/07/23 02:15:09;;;;;;;9.40;6.20;;;;;;;;;;4984377;28;20149;-65
2023/07/23 02:17:35;;;;;;;8.23;6.00;;;;;;;;;;4982893;28;20488;-65
2023/07/23 02:20:00;;;;;;;10.40;6.35;;;;;;;;;;4985490;28;20109;-65
2023/07/23 02:22:25;;;;;;;7.95;5.45;;;;;;;;;;4983738;28;20557;-65
2023/07/23 02:24:51;;;;;;;9.43;5.70;;;;;;;;;;4984632;28;20034;-65
2023/07/23 02:27:16;;;;;;;8.07;5.25;;;;;;;;;;4982724;28;20082;-65
2023/07/23 02:29:42;;;;;;;8.63;5.47;;;;;;;;;;4983957;28;20019;-65
2023/07/23 02:32:09;;;;;;;11.93;5.95;;;;;;;;;;4984182;28;20030;-65
2023/07/23 02:34:35;;;;;;;7.65;5.28;;;;;;;;;;4982505;28;20488;-65
2023/07/23 02:37:00;;;;;;;9.98;5.60;;;;;;;;;;4983926;28;20054;-66
2023/07/23 02:39:26;;;;;;;8.38;5.15;;;;;;;;;;4983962;28;20439;-65
2023/07/23 02:41:51;;;;;;;9.50;5.60;;;;;;;;;;4982288;28;20089;-65
2023/07/23 02:44:17;;;;;;;12.82;6.18;;;;;;;;;;4984435;28;20521;-65
2023/07/23 02:46:42;;;;;;;11.55;6.07;;;;;;;;;;4984095;28;20035;-67
2023/07/23 02:49:07;;;;;;;10.65;6.25;;;;;;;;;;4983785;28;20075;-65
2023/07/23 02:51:33;;;;;;;11.10;6.80;;;;;;;;;;4982304;28;20047;-65
2023/07/23 02:53:58;;;;;;;13.98;7.32;;;;;;;;;;4983927;28;20048;-65
2023/07/23 02:56:24;;;;;;;13.93;6.95;;;;;;;;;;4982812;28;20014;-68
2023/07/23 02:58:49;;;;;;;12.88;7.18;;;;;;;;;;4982441;28;20030;-68
2023/07/23 03:01:15;;;;;;;11.77;7.03;;;;;;;;;;4977218;28;20109;-65
2023/07/23 03:03:40;;;;;;;10.90;6.38;;;;;;;;;;4974821;28;20042;-64
2023/07/23 03:06:06;;;;;;;12.98;6.60;;;;;;;;;;4974815;28;20034;-65
2023/07/23 03:08:32;;;;;;;14.20;6.75;;;;;;;;;;4974593;28;20062;-65
2023/07/23 03:10:57;;;;;;;10.43;6.78;;;;;;;;;;4974464;28;20089;-64
2023/07/23 03:13:22;;;;;;;11.27;6.75;;;;;;;;;;4974575;28;20035;-64
2023/07/23 03:15:49;;;;;;;9.50;6.43;;;;;;;;;;4974506;28;20114;-64
2023/07/23 03:18:14;;;;;;;13.43;6.82;;;;;;;;;;4974649;28;20495;-64
2023/07/23 03:20:40;;;;;;;11.23;6.32;;;;;;;;;;4974584;28;20034;-65
2023/07/23 03:23:05;;;;;;;12.00;6.82;;;;;;;;;;4974460;28;20086;-65
2023/07/23 03:25:31;;;;;;;11.40;6.60;;;;;;;;;;4974245;28;20077;-65
2023/07/23 03:27:59;;;;;;;11.02;6.47;;;;;;;;;;4974430;28;20073;-64
2023/07/23 03:30:28;;;;;;;10.77;6.50;;;;;;;;;;4974468;28;20034;-64
2023/07/23 03:32:54;;;;;;;11.25;6.40;;;;;;;;;;4974351;28;20023;-64
2023/07/23 03:35:20;;;;;;;10.20;6.43;;;;;;;;;;4974254;28;20113;-65
2023/07/23 03:37:46;;;;;;;11.38;6.68;;;;;;;;;;4973382;28;20069;-67
2023/07/23 03:40:12;;;;;;;10.77;6.80;;;;;;;;;;4974038;28;20066;-67
2023/07/23 03:42:37;;;;;;;12.98;6.65;;;;;;;;;;4974240;28;20033;-68
2023/07/23 03:45:03;;;;;;;12.30;6.80;;;;;;;;;;4973899;28;20515;-65
2023/07/23 03:47:29;;;;;;;14.40;7.15;;;;;;;;;;4985288;28;20031;-65
2023/07/23 03:49:54;;;;;;;14.23;7.80;;;;;;;;;;4993327;28;20019;-65
2023/07/23 03:52:20;;;;;;;10.35;6.63;;;;;;;;;;4993459;28;20026;-67
2023/07/23 03:54:45;;;;;;;13.80;7.35;;;;;;;;;;4993272;28;20032;-65
2023/07/23 03:57:11;;;;;;;13.48;7.65;;;;;;;;;;4993421;28;20034;-64
2023/07/23 03:59:39;;;;;;;13.90;7.53;;;;;;;;;;4993423;28;20483;-65
2023/07/23 04:02:05;;;;;;;12.00;7.40;;;;;;;;;;4993485;28;20030;-66
2023/07/23 04:04:31;;;;;;;11.90;6.60;;;;;;;;;;4993250;28;20045;-64
2023/07/23 04:06:56;;;;;;;12.60;7.18;;;;;;;;;;4993321;28;20026;-64
2023/07/23 04:09:22;;;;;;;11.95;7.55;;;;;;;;;;4993007;28;20045;-64
2023/07/23 04:11:47;;;;;;;10.88;7.20;;;;;;;;;;4993276;28;20034;-66
2023/07/23 04:14:12;;;;;;;11.20;7.78;;;;;;;;;;4993256;28;20026;-66
2023/07/23 04:16:38;;;;;;;14.23;8.35;;;;;;;;;;4993234;28;20033;-65
2023/07/23 04:19:03;;;;;;;15.27;8.40;;;;;;;;;;4993197;28;20108;-65
2023/07/23 04:21:29;;;;;;;11.95;8.27;;;;;;;;;;4993071;28;20032;-65
2023/07/23 04:23:56;;;;;;;12.98;8.35;;;;;;;;;;4993095;28;20046;-65
2023/07/23 04:26:22;;;;;;;11.23;7.90;;;;;;;;;;4993142;28;20026;-65
2023/07/23 04:28:48;;;;;;;15.02;8.50;;;;;;;;;;4993219;28;20038;-65
2023/07/23 04:31:14;;;;;;;12.75;8.23;;;;;;;;;;4993323;28;20066;-65
2023/07/23 04:33:39;;;;;;;12.77;8.10;;;;;;;;;;4993320;28;20054;-68
2023/07/23 04:36:07;;;;;;;10.77;7.72;;;;;;;;;;4993136;28;20355;-65
2023/07/23 04:38:33;;;;;;;11.82;8.10;;;;;;;;;;4991627;28;20069;-65
2023/07/23 04:40:59;;;;;;;10.35;7.70;;;;;;;;;;4992948;28;20026;-65
2023/07/23 04:43:24;;;;;;;11.38;7.93;;;;;;;;;;4993118;28;20133;-65
2023/07/23 04:45:50;;;;;;;10.70;7.82;;;;;;;;;;4992999;28;20062;-65
2023/07/23 04:48:16;;;;;;;15.07;8.82;;;;;;;;;;4992775;28;20030;-65
2023/07/23 04:50:42;;;;;;;13.07;7.20;;;;;;;;;;4993027;28;20059;-65
2023/07/23 04:53:07;;;;;;;12.98;7.63;;;;;;;;;;4992757;28;20038;-65
2023/07/23 04:55:33;;;;;;;14.25;7.60;;;;;;;;;;4992712;28;20034;-65
2023/07/23 04:57:59;;;;;;;13.32;8.50;;;;;;;;;;4992947;28;20022;-65
2023/07/23 05:00:25;;;;;;;12.27;7.28;;;;;;;;;;4995278;28;20039;-65
2023/07/23 05:02:50;;;;;;;14.30;7.05;;;;;;;;;;4996522;28;20105;-65
2023/07/23 05:05:15;;;;;;;10.80;6.75;;;;;;;;;;4996380;28;20419;-66
2023/07/23 05:07:41;;;;;;;10.82;6.80;;;;;;;;;;4996378;28;20057;-65
2023/07/23 05:10:07;;;;;;;8.95;6.43;;;;;;;;;;4996497;28;20138;-65
2023/07/23 05:12:32;;;;;;;10.93;6.65;;;;;;;;;;4996481;28;20527;-68
2023/07/23 05:15:10;;;;;;;9.80;6.47;;;;;;;;;;4996187;28;20042;-66
2023/07/23 05:17:36;;;;;;;13.00;7.25;;;;;;;;;;4994907;28;20027;-65
2023/07/23 05:20:02;;;;;;;13.10;7.13;;;;;;;;;;4996112;28;20467;-68
2023/07/23 05:22:27;;;;;;;10.88;7.65;;;;;;;;;;4996024;28;20054;-65
2023/07/23 05:24:52;;;;;;;9.93;7.00;;;;;;;;;;4996059;28;20108;-65
2023/07/23 05:27:18;;;;;;;9.55;6.63;;;;;;;;;;4996188;28;20495;-66
2023/07/23 05:29:43;;;;;;;10.57;6.68;;;;;;;;;;4995919;28;20030;-67
2023/07/23 05:32:09;;;;;;;12.30;7.55;;;;;;;;;;4996034;28;20035;-65
2023/07/23 05:34:34;;;;;;;9.98;6.97;;;;;;;;;;4995938;28;20109;-66
2023/07/23 05:36:59;;;;;;;10.00;7.10;;;;;;;;;;4995637;28;20019;-66
2023/07/23 05:39:25;;;;;;;10.32;7.07;;;;;;;;;;4995837;28;20440;-65
2023/07/23 05:41:51;;;;;;;10.20;6.90;;;;;;;;;;4995706;28;20034;-67
2023/07/23 05:44:17;;;;;;;16.27;7.38;;;;;;;;;;4995751;28;20030;-68
2023/07/23 05:46:43;;;;;;;13.52;8.05;;;;;;;;;;4995312;28;20486;-65
2023/07/23 05:49:08;;;;;;;11.35;7.47;;;;;;;;;;4995288;28;20030;-65
2023/07/23 05:51:33;;;;;;;11.57;7.00;;;;;;;;;;4995304;28;20030;-66
2023/07/23 05:53:59;;;;;;;12.02;6.97;;;;;;;;;;4995447;28;20034;-65
2023/07/23 05:56:24;;;;;;;8.52;6.75;;;;;;;;;;4995520;28;20082;-65
2023/07/23 05:58:50;;;;;;;10.45;6.95;;;;;;;;;;4995582;28;20029;-65
2023/07/23 06:01:15;;;;;;;8.65;6.53;;;;;;;;;;4995411;28;20468;-68
2023/07/23 06:03:40;;;;;;;9.65;7.15;;;;;;;;;;4995355;28;20026;-66
2023/07/23 06:06:06;;;;;;;9.15;6.57;;;;;;;;;;4995145;28;20038;-66
2023/07/23 06:08:31;;;;;;;9.23;6.93;;;;;;;;;;4987465;28;20111;-66
2023/07/23 06:10:57;;;;;;;12.48;6.78;;;;;;;;;;4993151;28;20383;-66
2023/07/23 06:13:22;;;;;;;11.13;6.30;;;;;;;;;;4995266;28;20081;-65
2023/07/23 06:15:47;;;;;;;10.43;6.70;;;;;;;;;;4995221;28;20506;-66
2023/07/23 06:18:13;;;;;;;11.50;6.65;;;;;;;;;;4994977;28;20030;-65
2023/07/23 06:20:38;;;;;;;8.05;5.72;;;;;;;;;;4994750;28;20065;-66
2023/07/23 06:23:04;;;;;;;9.65;6.13;;;;;;;;;;4995096;28;20352;-65
2023/07/23 06:25:29;;;;;;;9.10;6.85;;;;;;;;;;4994904;28;20439;-65
2023/07/23 06:27:54;;;;;;;8.95;6.20;;;;;;;;;;4994902;28;20097;-66
2023/07/23 06:30:20;;;;;;;14.70;6.82;;;;;;;;;;4994859;28;20061;-66
2023/07/23 06:32:45;;;;;;;11.13;7.00;;;;;;;;;;4994936;28;20022;-66
2023/07/23 06:35:11;;;;;;;8.77;6.10;;;;;;;;;;4994278;28;20122;-66
2023/07/23 06:37:39;;;;;;;12.48;6.78;;;;;;;;;;4994598;28;20042;-66
2023/07/23 06:40:05;;;;;;;9.13;6.03;;;;;;;;;;4994293;28;20393;-66
2023/07/23 06:42:30;;;;;;;9.73;6.65;;;;;;;;;;4994488;28;20030;-65
2023/07/23 06:44:56;;;;;;;10.48;6.60;;;;;;;;;;4994427;28;20037;-66
2023/07/23 06:47:21;;;;;;;9.15;6.00;;;;;;;;;;4994163;28;20655;-66
2023/07/23 06:49:47;;;;;;;9.68;6.72;;;;;;;;;;4994145;28;20420;-66
2023/07/23 06:52:12;;;;;;;9.85;5.57;;;;;;;;;;4994391;28;20058;-66
2023/07/23 06:54:42;;;;;;;10.15;6.30;;;;;;;;;;4994186;28;20057;-65
2023/07/23 06:57:07;;;;;;;7.25;5.63;;;;;;;;;;4994205;28;20387;-68
2023/07/23 06:59:33;;;;;;;6.78;5.32;;;;;;;;;;4994181;28;20022;-66
2023/07/23 07:01:58;;;;;;;7.80;5.72;;;;;;;;;;4994214;28;20019;-69
2023/07/23 07:04:24;;;;;;;10.07;6.28;;;;;;;;;;4993925;28;20041;-68
2023/07/23 07:06:49;;;;;;;8.27;5.80;;;;;;;;;;4994130;28;20395;-68
2023/07/23 07:09:15;;;;;;;9.25;6.18;;;;;;;;;;4994127;28;20034;-66
2023/07/23 07:11:40;;;;;;;9.50;5.85;;;;;;;;;;4993989;28;20387;-69
2023/07/23 07:14:05;;;;;;;8.88;6.32;;;;;;;;;;4993812;28;20037;-66
2023/07/23 07:16:31;;;;;;;10.55;6.43;;;;;;;;;;4993560;28;20030;-66
2023/07/23 07:18:56;;;;;;;8.07;5.68;;;;;;;;;;4993770;28;20069;-65
2023/07/23 07:21:22;;;;;;;7.57;5.72;;;;;;;;;;4993414;28;20076;-66
2023/07/23 07:23:47;;;;;;;8.48;5.75;;;;;;;;;;4993493;28;20093;-67
2023/07/23 07:26:13;;;;;;;8.70;5.25;;;;;;;;;;4993705;28;20106;-67
2023/07/23 07:28:38;;;;;;;8.55;6.05;;;;;;;;;;4993842;28;20034;-65
2023/07/23 07:31:03;;;;;;;7.70;5.63;;;;;;;;;;4984898;28;20030;-65
2023/07/23 07:33:29;;;;;;;7.47;5.00;;;;;;;;;;4974426;28;20027;-65
2023/07/23 07:35:59;;;;;;;7.43;5.30;;;;;;;;;;4973954;28;20031;-65
2023/07/23 07:38:26;;;;;;;9.20;5.00;;;;;;;;;;4974177;28;20415;-65
2023/07/23 07:40:52;;;;;;;6.00;4.60;;;;;;;;;;4973871;28;20035;-65
2023/07/23 07:43:18;;;;;;;6.15;4.53;;;;;;;;;;4974179;28;20559;-67
2023/07/23 07:45:54;;;;;;;6.00;4.53;;;;;;;;;;4973339;28;20101;-65
2023/07/23 07:48:20;;;;;;;8.75;4.40;;;;;;;;;;4958990;28;20034;-68
2023/07/23 07:51:05;;;;;;;8.25;5.32;;;;;;;;;;4971958;28;20490;-67
2023/07/23 07:53:31;;;;;;;7.63;4.38;;;;;;;;;;4978845;28;20030;-66
2023/07/23 07:55:57;;;;;;;8.10;5.22;;;;;;;;;;4973284;28;20480;-67
2023/07/23 07:58:27;;;;;;;7.03;4.35;;;;;;;;;;4973479;28;20469;-67
2023/07/23 08:00:54;;;;;;;6.40;4.35;;;;;;;;;;4975584;28;20022;-67
2023/07/23 08:03:22;;;;;;;5.88;4.47;;;;;;;;;;4981714;28;20041;-66
2023/07/23 08:05:48;;;;;;;5.72;4.25;;;;;;;;;;4981493;28;20408;-66
2023/07/23 08:08:15;;;;;;;6.43;4.47;;;;;;;;;;4978154;28;20034;-66
2023/07/23 08:10:41;;;;;;;7.70;4.63;;;;;;;;;;4967384;28;20030;-66
2023/07/23 08:13:09;;;;;;;6.38;4.28;;;;;;;;;;4973918;28;20042;-65
2023/07/23 08:15:34;;;;;;;6.78;4.65;;;;;;;;;;4973146;28;20484;-65
2023/07/23 08:18:00;;;;;;;7.72;4.40;;;;;;;;;;4973548;28;20023;-68
2023/07/23 08:20:30;;;;;;;8.77;5.03;;;;;;;;;;4972851;28;20365;-65
2023/07/23 08:22:56;;;;;;;;;;;;;;;;;;4978049;28;20026;-67
2023/07/23 08:25:22;;;;;;;6.00;4.20;;;;;;;;;;4991977;28;19910;-67
2023/07/23 08:27:51;;;;;;;6.70;4.07;;;;;;;;;;4987882;28;20389;-66
2023/07/23 08:30:17;;;;;;;6.88;3.60;;;;;;;;;;4983059;28;20018;-66
2023/07/23 08:32:45;;;;;;;5.03;3.40;;;;;;;;;;4992668;28;20092;-66
2023/07/23 08:35:11;;;;;;;6.18;3.28;;;;;;;;;;4996118;28;20084;-65
2023/07/23 08:37:37;;;;;;;6.38;3.80;;;;;;;;;;4996554;28;20058;-65
2023/07/23 08:40:02;;;;;;;5.50;3.30;;;;;;;;;;4996559;28;20057;-65
2023/07/23 08:42:55;;;;;;;7.72;3.90;;;;;;;;;;4996439;28;20034;-65
2023/07/23 08:45:29;;;;;;;6.05;3.70;;;;;;;;;;4984340;28;20055;-68
2023/07/23 08:48:18;;;;;;;4.40;3.08;;;;;;;;;;4996528;28;20026;-66
2023/07/23 08:50:48;;;;;;;9.45;3.72;;;;;;;;;;4996443;28;20029;-66
2023/07/23 08:53:15;;;;;;;8.85;3.45;;;;;;;;;;4996214;28;20114;-66
2023/07/23 08:55:45;;;;;;;5.72;3.38;;;;;;;;;;4996055;28;20109;-66
2023/07/23 08:58:19;;;;;;;5.05;3.40;;;;;;;;;;4996026;28;20067;-66
2023/07/23 09:00:46;;;;;;;5.20;3.42;;;;;;;;;;4996177;28;20137;-66
2023/07/23 09:03:14;;;;;;;6.72;3.35;;;;;;;;;;4990040;28;20041;-67
2023/07/23 09:05:40;;;;;;;8.48;3.53;;;;;;;;;;4988379;28;20026;-66
2023/07/23 09:08:06;;;;;;;7.63;3.10;;;;;;;;;;4987048;28;20197;-66
2023/07/23 09:10:31;;;;;;;5.45;3.40;;;;;;;;;;4988419;28;20033;-66
2023/07/23 09:12:56;;;;;;;6.18;3.58;;;;;;;;;;4989404;28;20018;-66
2023/07/23 09:15:22;;;;;;;7.60;3.50;;;;;;;;;;4994966;28;20117;-66
2023/07/23 09:17:51;;;;;;;6.50;3.15;;;;;;;;;;4995796;28;20475;-66
2023/07/23 09:20:19;;;;;;;4.43;3.20;;;;;;;;;;4991992;28;20038;-65
2023/07/23 09:22:45;;;;;;;6.53;3.53;;;;;;;;;;4984648;28;20019;-66
2023/07/23 09:25:11;;;;;;;5.32;3.47;;;;;;;;;;4987419;28;20042;-66
2023/07/23 09:27:38;;;;;;;6.75;3.45;;;;;;;;;;4986455;28;20491;-66
2023/07/23 09:30:04;;;;;;;6.90;3.38;;;;;;;;;;4987407;28;20026;-66
2023/07/23 09:32:29;;;;;;;6.15;3.20;;;;;;;;;;4993860;28;20057;-66
2023/07/23 09:34:56;;;;;;;5.28;3.50;;;;;;;;;;4993593;28;20101;-66
2023/07/23 09:37:22;;;;;;;6.10;3.13;;;;;;;;;;4986439;28;20106;-65
2023/07/23 09:39:47;;;;;;;6.72;3.70;;;;;;;;;;4990505;28;20038;-66
2023/07/23 09:42:13;;;;;;;5.95;3.42;;;;;;;;;;4994906;28;20396;-65
2023/07/23 09:44:39;;;;;;;7.68;3.42;;;;;;;;;;4992293;28;20042;-66
2023/07/23 09:47:05;;;;;;;4.78;3.50;;;;;;;;;;4984597;28;20520;-65
2023/07/23 09:49:31;;;;;;;6.30;3.00;;;;;;;;;;4992461;28;20037;-65
2023/07/23 09:51:56;;;;;;;4.35;3.25;;;;;;;;;;4994969;28;20026;-65
2023/07/23 09:54:22;;;;;;;6.63;3.45;;;;;;;;;;4994883;28;20042;-65
2023/07/23 09:56:50;;;;;;;6.53;3.13;;;;;;;;;;4994820;28;20066;-68
2023/07/23 09:59:17;;;;;;;5.68;3.30;;;;;;;;;;4995087;28;20039;-66
2023/07/23 10:01:42;;;;;;;5.18;3.50;;;;;;;;;;4994972;28;20086;-67
2023/07/23 10:04:10;;;;;;;5.70;3.58;;;;;;;;;;4994911;28;20034;-66
2023/07/23 10:06:36;;;;;;;4.43;3.28;;;;;;;;;;4985242;28;20037;-66
2023/07/23 10:09:02;;;;;;;5.10;3.38;;;;;;;;;;4994918;28;20081;-66
2023/07/23 10:11:28;;;;;;;4.60;3.42;;;;;;;;;;4994433;28;20026;-66
2023/07/23 10:13:53;;;;;;;4.95;3.38;;;;;;;;;;4994827;28;20022;-66
2023/07/23 10:16:24;;;;;;;5.32;3.10;;;;;;;;;;4994782;28;20042;-66
2023/07/23 10:18:51;;;;;;;6.13;3.35;;;;;;;;;;4994518;28;20038;-66
2023/07/23 10:21:18;;;;;;;5.90;3.58;;;;;;;;;;4994620;28;20026;-66
2023/07/23 10:23:53;;;;;;;6.60;3.90;;;;;;;;;;4988224;28;20058;-66
2023/07/23 10:26:40;;;;;;;5.18;3.17;;;;;;;;;;4985124;28;20046;-66
2023/07/23 10:29:21;;;;;;;5.38;3.60;;;;;;;;;;4988813;28;20027;-67
2023/07/23 10:31:47;;;;;;;4.97;3.13;;;;;;;;;;4975145;28;20038;-66
2023/07/23 10:34:27;;;;;;;5.05;3.15;;;;;;;;;;4975006;28;20031;-66
2023/07/23 10:37:14;;;;;;;5.97;3.95;;;;;;;;;;4982868;28;20483;-66
2023/07/23 10:39:46;;;;;;;4.72;3.30;;;;;;;;;;4994470;28;20048;-67
2023/07/23 10:42:33;;;;;;;4.93;3.58;;;;;;;;;;4994349;28;20479;-66
2023/07/23 10:45:28;;;;;;;6.45;3.47;;;;;;;;;;4984374;28;20050;-66
2023/07/23 10:47:58;;;;;;;6.57;3.00;;;;;;;;;;4949894;28;20448;-66
2023/07/23 10:50:27;;;;;;;6.07;3.47;;;;;;;;;;4955797;28;20362;-65
2023/07/23 10:53:02;;;;;;;4.75;3.10;;;;;;;;;;4955677;28;20435;-65
2023/07/23 10:55:50;;;;;;;6.15;3.28;;;;;;;;;;4955332;28;20082;-67
2023/07/23 10:58:21;;;;;;;6.72;3.13;;;;;;;;;;4954345;28;20067;-64
2023/07/23 11:00:54;;;;;;;4.45;3.10;;;;;;;;;;4955490;28;20030;-65
2023/07/23 11:03:23;;;;;;;7.65;3.20;;;;;;;;;;4955464;28;20168;-65
2023/07/23 11:05:50;;;;;;;4.88;2.97;;;;;;;;;;4968022;28;20043;-65
2023/07/23 11:08:23;;;;;;;4.68;3.20;;;;;;;;;;4974418;28;20031;-65
2023/07/23 11:10:59;;;;;;;4.93;3.40;;;;;;;;;;4973987;28;20062;-67
2023/07/23 11:13:33;;;;;;;5.28;3.50;;;;;;;;;;4976040;28;20040;-65
2023/07/23 11:16:00;;;;;;;8.10;3.53;;;;;;;;;;4992333;28;20475;-67
2023/07/23 11:18:29;;;;;;;5.78;3.28;;;;;;;;;;4993506;28;20483;-65
2023/07/23 11:20:54;;;;;;;5.85;3.17;;;;;;;;;;4993337;28;20056;-65
2023/07/23 11:23:22;;;;;;;6.32;3.47;;;;;;;;;;4990727;28;20026;-65
2023/07/23 11:25:50;;;;;;;6.30;3.53;;;;;;;;;;4974633;28;20038;-64
2023/07/23 11:28:19;;;;;;;6.38;3.33;;;;;;;;;;4992217;28;20023;-64
2023/07/23 11:30:48;;;;;;;5.82;3.38;;;;;;;;;;4992766;28;20184;-65
2023/07/23 11:33:13;;;;;;;4.97;2.38;;;;;;;;;;4993358;28;20034;-65
2023/07/23 11:35:39;;;;;;;4.60;3.50;;;;;;;;;;4993094;28;20436;-64
2023/07/23 11:38:05;;;;;;;6.35;3.28;;;;;;;;;;4992880;28;20045;-64
2023/07/23 11:40:31;;;;;;;4.50;3.33;;;;;;;;;;4993212;28;20101;-65
2023/07/23 11:43:01;;;;;;;9.70;3.45;;;;;;;;;;4992744;28;20106;-65
2023/07/23 11:45:27;;;;;;;5.43;3.45;;;;;;;;;;4992958;28;20050;-65
2023/07/23 11:47:53;;;;;;;12.95;3.75;;;;;;;;;;4992097;28;20050;-65
2023/07/23 11:50:23;;;;;;;6.38;2.97;;;;;;;;;;4991801;28;20474;-64
2023/07/23 11:52:50;;;;;;;;;;;;;;;;;;4993288;28;20387;-65
2023/07/23 11:55:24;;;;;;;5.13;3.08;;;;;;;;;;4992861;28;19914;-68
2023/07/23 11:57:58;;;;;;;5.10;3.20;;;;;;;;;;4993030;28;20097;-65
2023/07/23 12:00:39;;;;;;;9.15;3.25;;;;;;;;;;4961210;28;20364;-65
2023/07/23 12:03:09;;;;;;;6.15;3.10;;;;;;;;;;4992763;28;20060;-65
2023/07/23 12:05:38;;;;;;;4.88;2.92;;;;;;;;;;4981390;28;20487;-65
2023/07/23 12:08:05;;;;;;;5.03;3.00;;;;;;;;;;4988388;28;20089;-67
2023/07/23 12:10:32;;;;;;;6.07;2.83;;;;;;;;;;4991225;28;20027;-65
2023/07/23 12:12:58;;;;;;;3.72;2.70;;;;;;;;;;4990174;28;20085;-65
2023/07/23 12:15:24;;;;;;;4.97;2.90;;;;;;;;;;4991960;28;20034;-66
2023/07/23 12:17:51;;;;;;;5.80;3.20;;;;;;;;;;4992294;28;20402;-65
2023/07/23 12:20:17;;;;;;;5.18;2.88;;;;;;;;;;4992915;28;20069;-65
2023/07/23 12:22:56;;;;;;;7.32;3.28;;;;;;;;;;4991852;28;20030;-66
2023/07/23 12:25:23;;;;;;;4.05;2.78;;;;;;;;;;4974428;28;20071;-65
2023/07/23 12:27:50;;;;;;;6.45;3.33;;;;;;;;;;4973631;28;20503;-65
2023/07/23 12:30:16;;;;;;;4.05;3.00;;;;;;;;;;4971572;28;20034;-65
2023/07/23 12:32:41;;;;;;;8.38;3.15;;;;;;;;;;4970965;28;20379;-66
2023/07/23 12:35:07;;;;;;;6.55;3.08;;;;;;;;;;4971504;28;20537;-67
2023/07/23 12:37:34;;;;;;;5.25;2.85;;;;;;;;;;4972500;28;20415;-65
2023/07/23 12:40:04;;;;;;;4.75;2.72;;;;;;;;;;4972610;28;20054;-65
2023/07/23 12:42:32;;;;;;;7.28;3.45;;;;;;;;;;4972911;28;20031;-65
2023/07/23 12:45:03;;;;;;;7.43;3.70;;;;;;;;;;4971529;28;20524;-66
2023/07/23 12:47:29;;;;;;;6.47;2.90;;;;;;;;;;4973281;28;20138;-65
2023/07/23 12:50:00;;;;;;;7.00;3.22;;;;;;;;;;4973491;28;20109;-65
2023/07/23 12:52:26;;;;;;;5.53;2.80;;;;;;;;;;4973477;28;20487;-65
2023/07/23 12:54:52;;;;;;;5.85;3.40;;;;;;;;;;4973312;28;20487;-66
2023/07/23 12:57:18;;;;;;;5.20;3.10;;;;;;;;;;4975621;28;20062;-65
2023/07/23 12:59:44;;;;;;;4.45;3.13;;;;;;;;;;4990462;28;20054;-65
2023/07/23 13:02:10;;;;;;;5.13;3.35;;;;;;;;;;4984867;28;20026;-65
2023/07/23 13:04:42;;;;;;;7.30;3.03;;;;;;;;;;4985111;28;20423;-65
2023/07/23 13:07:07;;;;;;;4.70;3.25;;;;;;;;;;4984907;28;20085;-65
2023/07/23 13:09:33;;;;;;;5.60;3.38;;;;;;;;;;4984723;28;20027;-66
2023/07/23 13:11:58;;;;;;;6.70;3.25;;;;;;;;;;4980573;28;20546;-67
2023/07/23 13:14:24;;;;;;;5.93;3.20;;;;;;;;;;4982183;28;20057;-65
2023/07/23 13:16:49;;;;;;;4.85;3.40;;;;;;;;;;4986989;28;20030;-66
2023/07/23 13:19:14;;;;;;;5.43;2.75;;;;;;;;;;4983291;28;20025;-65
2023/07/23 13:21:40;;;;;;;4.78;2.80;;;;;;;;;;4989679;28;20113;-66
2023/07/23 13:24:05;;;;;;;4.75;3.20;;;;;;;;;;4995035;28;20101;-71
2023/07/23 13:26:31;;;;;;;5.00;2.90;;;;;;;;;;4994643;28;20102;-66
2023/07/23 13:28:58;;;;;;;4.30;2.92;;;;;;;;;;4995734;28;20035;-66
2023/07/23 13:31:23;;;;;;;5.10;3.25;;;;;;;;;;4995571;28;20100;-66
2023/07/23 13:33:50;;;;;;;4.63;3.05;;;;;;;;;;4995285;28;20026;-66
2023/07/23 13:36:16;;;;;;;5.97;3.30;;;;;;;;;;4995577;28;20041;-66
2023/07/23 13:38:41;;;;;;;7.63;3.20;;;;;;;;;;4995655;28;20031;-66
2023/07/23 13:41:07;;;;;;;4.18;3.10;;;;;;;;;;4995495;28;20404;-66
2023/07/23 13:43:32;;;;;;;4.57;3.15;;;;;;;;;;4994561;28;20030;-66
2023/07/23 13:45:58;;;;;;;5.13;3.25;;;;;;;;;;4994369;28;20527;-66
2023/07/23 13:48:23;;;;;;;4.97;3.50;;;;;;;;;;4985838;28;20368;-66
2023/07/23 13:50:48;;;;;;;6.38;3.10;;;;;;;;;;4995158;28;20045;-67
2023/07/23 13:53:14;;;;;;;5.80;3.00;;;;;;;;;;4994943;28;20471;-66
2023/07/23 13:55:39;;;;;;;5.18;3.17;;;;;;;;;;4992668;28;20042;-67
2023/07/23 13:58:05;;;;;;;5.55;3.28;;;;;;;;;;4993418;28;20034;-66
2023/07/23 14:00:30;;;;;;;4.55;3.20;;;;;;;;;;4995093;28;20077;-66
2023/07/23 14:02:55;;;;;;;4.97;3.45;;;;;;;;;;4994795;28;20383;-72
2023/07/23 14:05:25;;;;;;;6.03;2.75;;;;;;;;;;4995095;28;20030;-66
2023/07/23 14:07:52;;;;;;;5.85;3.33;;;;;;;;;;4995013;28;20080;-67
2023/07/23 14:10:17;;;;;;;4.88;3.22;;;;;;;;;;4993721;28;20077;-65
2023/07/23 14:12:43;;;;;;;3.88;2.75;;;;;;;;;;4994801;28;20030;-66
2023/07/23 14:15:09;;;;;;;4.45;3.10;;;;;;;;;;4993675;28;20399;-66
2023/07/23 14:17:34;;;;;;;5.18;3.35;;;;;;;;;;4992954;28;20105;-66
2023/07/23 14:19:59;;;;;;;5.93;3.25;;;;;;;;;;4993707;28;20031;-66
2023/07/23 14:22:25;;;;;;;4.30;3.22;;;;;;;;;;4993524;28;20420;-66
2023/07/23 14:24:50;;;;;;;4.85;2.78;;;;;;;;;;4979153;28;20019;-73
2023/07/23 14:27:16;;;;;;;7.82;3.25;;;;;;;;;;4974220;28;20035;-66
2023/07/23 14:29:41;;;;;;;5.18;3.25;;;;;;;;;;4974832;28;20054;-66
2023/07/23 14:32:09;;;;;;;6.28;3.28;;;;;;;;;;4974825;28;20078;-66
2023/07/23 14:34:37;;;;;;;6.00;3.85;;;;;;;;;;4975029;28;20038;-65
2023/07/23 14:37:04;;;;;;;5.95;3.40;;;;;;;;;;4975268;28;20506;-66
2023/07/23 14:39:29;;;;;;;5.93;3.60;;;;;;;;;;4975155;28;20529;-66